Terminal Aerodrome Forecast
Issued by NWS

Home | Current Version | Previous Version | Text Only | Print | Product List | Glossary On
Versions: 1 2 3 4 5 6 7 8 9 10 11 12 13 14 15 16 17 18 19 20 21 22 23 24 25 26 27 28 29 30 31 32 33 34 35 36
723
FTAK31 PANC 222322
TAFADU
TAF
PADU 222322Z 2300/2324 06010KT 4SM BR SCT001 OVC003
      TEMPO 2300/2304 2SM BR OVC002
     FM231200 VRB04KT 1SM BR OVC002
     FM231900 VRB04KT P6SM FEW002 BKN015=

USA.gov is the U.S. government's official web portal to all federal, state and local government web resources and services.